createdAt,value
2019-03-25T07:00:29.095Z,1014.29
2019-03-25T07:01:29.065Z,1014.30
2019-03-25T07:02:29.085Z,1014.33
2019-03-25T07:03:29.938Z,1014.34
2019-03-25T07:04:29.044Z,1014.43
2019-03-25T07:05:29.023Z,1014.31
2019-03-25T07:06:29.012Z,1014.32
2019-03-25T07:07:29.041Z,1014.40
2019-03-25T07:08:28.999Z,1014.37
2019-03-25T07:09:29.003Z,1014.40
2019-03-25T07:10:28.973Z,1014.40
2019-03-25T07:11:28.965Z,1014.43
2019-03-25T07:12:28.999Z,1014.51
2019-03-25T07:13:28.984Z,1014.49
2019-03-25T07:14:28.942Z,1014.52
2019-03-25T07:15:28.931Z,1014.46
2019-03-25T07:16:28.906Z,1014.60
2019-03-25T07:17:28.904Z,1014.56
2019-03-25T07:18:28.928Z,1014.48
2019-03-25T07:19:28.875Z,1014.38
2019-03-25T07:20:28.887Z,1014.52
2019-03-25T07:21:28.859Z,1014.49
2019-03-25T07:22:28.846Z,1014.50
2019-03-25T07:23:28.845Z,1014.46
2019-03-25T07:24:28.837Z,1014.44
2019-03-25T07:25:28.837Z,1014.60
2019-03-25T07:26:28.802Z,1014.55
2019-03-25T07:27:36.655Z,1014.52
2019-03-25T07:28:29.785Z,1014.48
2019-03-25T07:29:28.767Z,1014.25
2019-03-25T07:30:28.778Z,1014.54
2019-03-25T07:31:28.747Z,1014.53
2019-03-25T07:32:28.747Z,1014.58
2019-03-25T07:33:28.727Z,1014.56
2019-03-25T07:34:28.768Z,1014.57
2019-03-25T07:35:28.733Z,1014.56
2019-03-25T07:36:28.687Z,1014.60
2019-03-25T07:37:28.720Z,1014.59
2019-03-25T07:38:28.720Z,1014.59
2019-03-25T07:39:28.654Z,1014.67
2019-03-25T07:40:28.636Z,1014.65
2019-03-25T07:41:28.633Z,1014.70
2019-03-25T07:42:28.654Z,1014.67
2019-03-25T07:43:28.632Z,1014.67
2019-03-25T07:44:28.598Z,1014.66
2019-03-25T07:45:28.615Z,1014.62
2019-03-25T07:46:28.601Z,1014.69
2019-03-25T07:47:28.600Z,1014.60
2019-03-25T07:48:28.559Z,1014.59
2019-03-25T07:49:28.571Z,1014.59
2019-03-25T07:50:28.528Z,1014.45
2019-03-25T07:51:28.521Z,1014.50
2019-03-25T07:52:28.543Z,1014.42
2019-03-25T07:53:28.525Z,1014.45
2019-03-25T07:54:28.510Z,1014.52
2019-03-25T07:55:28.490Z,1014.45
2019-03-25T07:56:28.482Z,1014.45
2019-03-25T07:57:28.502Z,1014.52
2019-03-25T07:58:28.449Z,1014.53
2019-03-25T07:59:28.450Z,1014.36
2019-03-25T08:00:28.445Z,1014.49
2019-03-25T08:01:28.420Z,1014.52
2019-03-25T08:02:28.445Z,1014.40
2019-03-25T08:03:28.393Z,1014.52
2019-03-25T08:04:28.381Z,1014.57
2019-03-25T08:05:28.434Z,1014.54
2019-03-25T08:06:28.380Z,1014.55
2019-03-25T08:07:28.394Z,1014.41
2019-03-25T08:08:28.381Z,1014.57
2019-03-25T08:09:28.324Z,1014.66
2019-03-25T08:10:28.335Z,1014.55
2019-03-25T08:11:28.321Z,1014.40
2019-03-25T08:12:28.326Z,1014.49
2019-03-25T08:13:28.338Z,1014.55
2019-03-25T08:14:28.287Z,1014.55
2019-03-25T08:15:28.267Z,1014.54
2019-03-25T08:16:28.251Z,1014.77
2019-03-25T08:17:28.257Z,1014.66
2019-03-25T08:18:28.250Z,1014.62
2019-03-25T08:19:28.216Z,1014.70
2019-03-25T08:20:28.205Z,1014.42
2019-03-25T08:21:28.203Z,1014.55
2019-03-25T08:22:28.211Z,1014.54
2019-03-25T08:23:28.203Z,1014.88
2019-03-25T08:24:28.195Z,1014.78
2019-03-25T08:25:28.157Z,1014.64
2019-03-25T08:26:28.138Z,1014.76
2019-03-25T08:27:28.131Z,1014.59
2019-03-25T08:28:28.145Z,1014.59
2019-03-25T08:29:28.127Z,1014.54
2019-03-25T08:30:28.115Z,1014.56
2019-03-25T08:31:28.104Z,1014.63
2019-03-25T08:32:28.087Z,1014.75
2019-03-25T08:33:28.098Z,1014.60
2019-03-25T08:34:28.084Z,1014.71
2019-03-25T08:35:28.048Z,1014.76
2019-03-25T08:36:28.039Z,1014.55
2019-03-25T08:37:28.020Z,1014.72
2019-03-25T08:38:28.015Z,1014.74
2019-03-25T08:39:28.026Z,1014.59
2019-03-25T08:40:27.994Z,1014.75
2019-03-25T08:41:28.004Z,1014.74
2019-03-25T08:42:28.006Z,1014.66
2019-03-25T08:43:27.967Z,1014.78
2019-03-25T08:44:27.943Z,1014.85
2019-03-25T08:45:27.943Z,1014.68
2019-03-25T08:46:27.967Z,1014.87
2019-03-25T08:47:27.934Z,1014.81
2019-03-25T08:48:27.901Z,1014.86
2019-03-25T08:49:27.920Z,1014.71
2019-03-25T08:50:27.893Z,1014.64
2019-03-25T08:51:27.870Z,1014.56
2019-03-25T08:52:27.874Z,1014.60
2019-03-25T08:53:27.847Z,1014.67
2019-03-25T08:54:27.872Z,1014.68
2019-03-25T08:55:27.823Z,1014.58
2019-03-25T08:56:27.816Z,1014.74
2019-03-25T08:57:27.815Z,1014.66
2019-03-25T08:58:27.839Z,1014.72
2019-03-25T08:59:27.851Z,1014.70
2019-03-25T09:00:27.829Z,1014.75
2019-03-25T09:01:27.768Z,1014.66
2019-03-25T09:02:27.755Z,1014.67
2019-03-25T09:03:27.774Z,1014.65
2019-03-25T09:04:27.767Z,1014.74
2019-03-25T09:05:27.769Z,1014.72
2019-03-25T09:06:27.726Z,1014.74
2019-03-25T09:07:27.716Z,1014.52
2019-03-25T09:08:27.696Z,1014.61
2019-03-25T09:09:27.697Z,1014.67
2019-03-25T09:10:27.671Z,1014.79
2019-03-25T09:11:27.657Z,1014.78
2019-03-25T09:12:27.664Z,1014.81
2019-03-25T09:13:27.647Z,1014.61
2019-03-25T09:14:27.630Z,1014.92
2019-03-25T09:15:27.647Z,1014.83
2019-03-25T09:16:27.607Z,1014.68
2019-03-25T09:17:28.229Z,1014.64
2019-03-25T09:18:27.578Z,1014.69
2019-03-25T09:19:27.598Z,1014.72
2019-03-25T09:20:27.596Z,1014.66
2019-03-25T09:21:27.579Z,1014.69
2019-03-25T09:22:27.536Z,1014.70
2019-03-25T09:23:27.526Z,1014.73
2019-03-25T09:24:27.515Z,1014.57
2019-03-25T09:25:27.563Z,1014.74
2019-03-25T09:26:27.504Z,1014.75
2019-03-25T09:27:27.510Z,1014.85
2019-03-25T09:28:27.489Z,1014.67
2019-03-25T09:29:27.462Z,1014.71
2019-03-25T09:30:27.480Z,1014.56
2019-03-25T09:31:36.396Z,1014.61
2019-03-25T09:32:28.470Z,1014.53
2019-03-25T09:33:27.433Z,1014.64
2019-03-25T09:34:27.511Z,1014.77
2019-03-25T09:35:27.403Z,1014.72
2019-03-25T09:36:27.384Z,1014.73
2019-03-25T09:37:27.383Z,1014.52
2019-03-25T09:38:27.377Z,1014.70
2019-03-25T09:39:27.403Z,1014.58
2019-03-25T09:40:27.371Z,1014.59
2019-03-25T09:41:27.332Z,1015.00
2019-03-25T09:42:27.808Z,1014.79
2019-03-25T09:43:27.362Z,1014.58
2019-03-25T09:44:27.300Z,1014.42
2019-03-25T09:45:27.297Z,1014.61
2019-03-25T09:46:27.282Z,1014.37
2019-03-25T09:47:27.320Z,1014.57
2019-03-25T09:48:27.282Z,1014.52
2019-03-25T09:49:27.265Z,1014.45
2019-03-25T09:50:27.260Z,1014.45
2019-03-25T09:51:27.264Z,1014.39
2019-03-25T09:52:38.102Z,1014.65
2019-03-25T09:53:28.211Z,1014.35
2019-03-25T09:54:27.202Z,1014.68
2019-03-25T09:55:27.208Z,1014.76
2019-03-25T09:56:27.170Z,1014.51
2019-03-25T09:57:27.181Z,1014.52
2019-03-25T09:58:35.722Z,1014.52
2019-03-25T09:59:28.138Z,1014.61
2019-03-25T10:00:27.133Z,1014.63
2019-03-25T10:01:27.156Z,1014.66
2019-03-25T10:02:27.105Z,1014.38
2019-03-25T10:03:27.161Z,1014.65
2019-03-25T10:04:27.162Z,1014.69
2019-03-25T10:05:27.089Z,1014.47
2019-03-25T10:06:27.063Z,1014.54
2019-03-25T10:07:28.416Z,1014.63
2019-03-25T10:08:27.078Z,1014.63
2019-03-25T10:09:27.098Z,1014.43
2019-03-25T10:10:27.130Z,1014.59
2019-03-25T10:11:27.045Z,1014.63
2019-03-25T10:12:27.093Z,1014.32
2019-03-25T10:13:26.999Z,1014.54
2019-03-25T10:14:27.006Z,1014.92
2019-03-25T10:15:26.975Z,1014.90
2019-03-25T10:16:26.963Z,1014.98
2019-03-25T10:17:26.973Z,1014.91
2019-03-25T10:18:26.932Z,1014.59
2019-03-25T10:19:26.924Z,1014.65
2019-03-25T10:20:26.939Z,1014.50
2019-03-25T10:21:26.903Z,1014.73
2019-03-25T10:22:26.921Z,1014.87
2019-03-25T10:23:26.891Z,1014.66
2019-03-25T10:24:28.100Z,1014.93
2019-03-25T10:25:26.861Z,1014.55
2019-03-25T10:26:26.880Z,1014.55
2019-03-25T10:27:26.867Z,1014.88
2019-03-25T10:28:26.834Z,1014.85
2019-03-25T10:29:26.817Z,1014.58
2019-03-25T10:30:26.805Z,1014.78
2019-03-25T10:31:26.827Z,1014.79
2019-03-25T10:32:26.783Z,1014.82
2019-03-25T10:33:26.790Z,1014.81
2019-03-25T10:34:26.769Z,1014.79
2019-03-25T10:35:26.753Z,1015.08
2019-03-25T10:36:26.837Z,1015.00
2019-03-25T10:37:26.746Z,1014.79
2019-03-25T10:38:26.723Z,1014.93
2019-03-25T10:39:26.719Z,1014.92
2019-03-25T10:40:26.697Z,1014.83
2019-03-25T10:41:26.711Z,1014.57
2019-03-25T10:42:26.682Z,1014.64
2019-03-25T10:43:26.687Z,1014.66
2019-03-25T10:44:26.687Z,1014.98
2019-03-25T10:45:26.646Z,1014.64
2019-03-25T10:46:26.654Z,1014.61
2019-03-25T10:47:26.652Z,1014.72
2019-03-25T10:48:26.629Z,1014.57
2019-03-25T10:49:26.646Z,1014.79
2019-03-25T10:50:26.599Z,1014.76
2019-03-25T10:51:26.592Z,1014.89
2019-03-25T10:52:26.613Z,1015.05
2019-03-25T10:53:26.563Z,1014.93
2019-03-25T10:54:26.629Z,1014.98
2019-03-25T10:55:26.586Z,1015.14
2019-03-25T10:56:26.543Z,1015.22
2019-03-25T10:57:26.518Z,1014.99
2019-03-25T10:58:26.514Z,1015.48
2019-03-25T10:59:26.508Z,1015.37
2019-03-25T11:00:26.527Z,1015.07
2019-03-25T11:01:26.474Z,1015.17
2019-03-25T11:02:26.458Z,1014.84
2019-03-25T11:03:26.454Z,1014.86
2019-03-25T11:04:26.483Z,1014.96
2019-03-25T11:05:26.464Z,1015.04
2019-03-25T11:06:26.418Z,1014.89
2019-03-25T11:07:29.288Z,1014.92
2019-03-25T11:08:26.397Z,1014.88
2019-03-25T11:09:26.438Z,1014.92
2019-03-25T11:10:26.484Z,1014.97
2019-03-25T11:11:26.392Z,1014.95
2019-03-25T11:12:26.368Z,1015.00
2019-03-25T11:13:26.343Z,1015.15
2019-03-25T11:14:26.358Z,1015.29
2019-03-25T11:15:26.323Z,1015.23
2019-03-25T11:16:26.338Z,1015.13
2019-03-25T11:17:26.315Z,1015.50
2019-03-25T11:18:26.303Z,1015.42
2019-03-25T11:19:26.324Z,1015.50
2019-03-25T11:20:26.269Z,1015.31
2019-03-25T11:21:26.271Z,1015.23
2019-03-25T11:22:26.258Z,1015.11
2019-03-25T11:23:26.259Z,1015.76
2019-03-25T11:24:26.266Z,1015.40
2019-03-25T11:25:26.274Z,1015.42
2019-03-25T11:26:26.209Z,1015.53
2019-03-25T11:27:26.235Z,1015.46
2019-03-25T11:28:26.189Z,1015.29
2019-03-25T11:29:26.179Z,1015.42
2019-03-25T11:30:26.159Z,1015.50
2019-03-25T11:31:26.150Z,1015.58
2019-03-25T11:32:26.173Z,1015.31
2019-03-25T11:33:26.127Z,1015.33
2019-03-25T11:34:26.164Z,1015.35
2019-03-25T11:35:26.134Z,1015.53
2019-03-25T11:36:26.118Z,1015.30
2019-03-25T11:37:26.109Z,1015.35
2019-03-25T11:38:26.099Z,1015.27
2019-03-25T11:39:26.108Z,1015.30
2019-03-25T11:40:26.052Z,1015.27
2019-03-25T11:41:26.041Z,1015.35
2019-03-25T11:42:26.039Z,1015.21
2019-03-25T11:43:26.044Z,1015.01
2019-03-25T11:44:26.040Z,1015.40
2019-03-25T11:45:25.999Z,1015.45
2019-03-25T11:46:26.004Z,1015.07
2019-03-25T11:47:25.991Z,1015.25
2019-03-25T11:48:26.025Z,1015.35
2019-03-25T11:49:25.962Z,1015.38
2019-03-25T11:50:25.956Z,1015.43
2019-03-25T11:51:25.956Z,1015.59
2019-03-25T11:52:25.957Z,1015.19
2019-03-25T11:53:25.975Z,1015.45
2019-03-25T11:54:25.904Z,1015.29
2019-03-25T11:55:25.897Z,1015.14
2019-03-25T11:56:25.884Z,1015.32
2019-03-25T11:57:25.910Z,1015.21
2019-03-25T11:58:25.908Z,1015.25
2019-03-25T11:59:25.859Z,1015.30
2019-03-25T12:00:25.839Z,1015.23
2019-03-25T12:01:25.838Z,1015.30
2019-03-25T12:02:25.839Z,1015.25
2019-03-25T12:03:25.812Z,1015.26
2019-03-25T12:04:25.869Z,1015.17
2019-03-25T12:05:25.784Z,1015.26
2019-03-25T12:06:25.781Z,1015.34
2019-03-25T12:07:25.768Z,1015.11
2019-03-25T12:08:25.752Z,1015.29
2019-03-25T12:09:32.812Z,1015.37
2019-03-25T12:10:25.758Z,1015.50
2019-03-25T12:11:25.719Z,1015.57
2019-03-25T12:12:25.706Z,1015.41
2019-03-25T12:13:25.701Z,1015.42
2019-03-25T12:14:25.708Z,1015.49
2019-03-25T12:15:25.693Z,1015.39
2019-03-25T12:16:25.695Z,1015.47
2019-03-25T12:17:25.658Z,1015.48
2019-03-25T12:18:25.668Z,1015.47
2019-03-25T12:19:25.631Z,1015.64
2019-03-25T12:20:25.623Z,1015.44
2019-03-25T12:21:25.632Z,1015.60
2019-03-25T12:22:25.609Z,1015.60
2019-03-25T12:23:26.548Z,1015.61
2019-03-25T12:24:25.578Z,1015.70
2019-03-25T12:25:25.592Z,1015.78
2019-03-25T12:26:25.587Z,1015.76
2019-03-25T12:27:25.647Z,1015.80
2019-03-25T12:28:25.536Z,1015.56
2019-03-25T12:29:29.946Z,1015.66
2019-03-25T12:30:26.527Z,1015.78
2019-03-25T12:31:25.527Z,1015.80
2019-03-25T12:32:25.515Z,1015.80
2019-03-25T12:33:25.521Z,1015.91
2019-03-25T12:34:25.554Z,1015.93
2019-03-25T12:35:25.467Z,1015.91
2019-03-25T12:36:25.476Z,1015.76
2019-03-25T12:37:25.440Z,1015.76
2019-03-25T12:38:25.449Z,1015.57
2019-03-25T12:39:25.462Z,1015.43
2019-03-25T12:40:25.427Z,1015.34
2019-03-25T12:41:25.465Z,1015.61
2019-03-25T12:42:25.393Z,1015.23
2019-03-25T12:43:25.453Z,1015.27
2019-03-25T12:44:25.367Z,1015.34
2019-03-25T12:45:25.378Z,1015.40
2019-03-25T12:46:25.342Z,1015.56
2019-03-25T12:47:25.336Z,1015.53
2019-03-25T12:48:25.439Z,1015.44
2019-03-25T12:49:25.375Z,1015.34
2019-03-25T12:50:25.303Z,1015.41
2019-03-25T12:51:25.317Z,1015.67
2019-03-25T12:52:25.359Z,1015.68
2019-03-25T12:53:25.313Z,1015.55
2019-03-25T12:54:25.265Z,1015.44
2019-03-25T12:55:25.358Z,1015.42
2019-03-25T12:56:25.259Z,1015.19
2019-03-25T12:57:25.271Z,1015.67
2019-03-25T12:58:25.261Z,1015.25
2019-03-25T12:59:25.199Z,1015.32
2019-03-25T13:00:25.189Z,1015.31
2019-03-25T13:01:25.193Z,1015.38
2019-03-25T13:02:25.198Z,1015.35
2019-03-25T13:03:25.223Z,1015.37
2019-03-25T13:04:25.149Z,1015.47
2019-03-25T13:05:25.146Z,1015.33
2019-03-25T13:06:25.168Z,1015.32
2019-03-25T13:07:25.129Z,1015.33
2019-03-25T13:08:32.992Z,1015.28
2019-03-25T13:09:26.109Z,1015.29
2019-03-25T13:10:25.086Z,1015.18
2019-03-25T13:11:25.100Z,1015.31
2019-03-25T13:12:25.071Z,1015.28
2019-03-25T13:13:25.065Z,1015.31
2019-03-25T13:14:25.070Z,1015.36
2019-03-25T13:15:25.030Z,1015.42
2019-03-25T13:16:25.055Z,1015.59
2019-03-25T13:17:25.011Z,1015.31
2019-03-25T13:18:25.048Z,1015.37
2019-03-25T13:19:25.039Z,1015.33
2019-03-25T13:20:24.991Z,1015.30
2019-03-25T13:21:24.973Z,1015.42
2019-03-25T13:22:24.993Z,1015.39
2019-03-25T13:23:24.963Z,1015.63
2019-03-25T13:24:24.933Z,1015.95
2019-03-25T13:25:24.935Z,1015.91
2019-03-25T13:26:24.914Z,1015.93
2019-03-25T13:27:24.953Z,1015.89
2019-03-25T13:28:24.890Z,1015.89
2019-03-25T13:29:24.883Z,1015.92
2019-03-25T13:30:24.875Z,1015.97
2019-03-25T13:31:24.887Z,1015.88
2019-03-25T13:32:24.859Z,1015.96
2019-03-25T13:33:24.863Z,1015.95
2019-03-25T13:34:24.831Z,1015.95
2019-03-25T13:35:24.848Z,1015.91
2019-03-25T13:36:24.814Z,1015.81
2019-03-25T13:37:24.798Z,1015.81
2019-03-25T13:38:24.790Z,1015.66
2019-03-25T13:39:24.773Z,1015.73
2019-03-25T13:40:24.800Z,1015.84
2019-03-25T13:41:24.758Z,1015.90
2019-03-25T13:42:24.746Z,1015.76
2019-03-25T13:43:24.734Z,1015.83
2019-03-25T13:44:24.727Z,1015.74
2019-03-25T13:45:24.743Z,1015.89
2019-03-25T13:46:24.845Z,1015.63
2019-03-25T13:47:24.798Z,1015.70
2019-03-25T13:48:24.692Z,1015.71
2019-03-25T13:49:24.667Z,1015.55
2019-03-25T13:50:24.753Z,1015.66
2019-03-25T13:51:24.950Z,1015.69
2019-03-25T13:52:24.637Z,1015.77
2019-03-25T13:53:36.799Z,1015.71
2019-03-25T13:54:36.791Z,1015.71
2019-03-25T13:55:36.815Z,1015.75
2019-03-25T13:56:36.830Z,1015.61
2019-03-25T13:57:36.756Z,1015.69
2019-03-25T13:58:36.744Z,1015.66
2019-03-25T13:59:36.758Z,1015.67
2019-03-25T14:00:36.762Z,1015.61
2019-03-25T14:01:36.722Z,1015.71
2019-03-25T14:02:36.702Z,1015.65
2019-03-25T14:03:36.693Z,1015.76
2019-03-25T14:04:36.702Z,1015.71
2019-03-25T14:05:36.753Z,1015.62
2019-03-25T14:06:36.671Z,1015.60
2019-03-25T14:07:36.651Z,1015.48
2019-03-25T14:08:36.664Z,1015.74
2019-03-25T14:09:36.629Z,1015.63
2019-03-25T14:10:36.658Z,1015.61
2019-03-25T14:11:36.655Z,1015.65
2019-03-25T14:12:36.598Z,1015.62
2019-03-25T14:13:36.647Z,1015.59
2019-03-25T14:14:36.573Z,1015.73
2019-03-25T14:15:36.573Z,1015.74
2019-03-25T14:16:36.577Z,1015.48
2019-03-25T14:17:36.570Z,1015.47
2019-03-25T14:18:36.544Z,1015.63
2019-03-25T14:19:36.530Z,1015.46
2019-03-25T14:20:36.509Z,1015.59
2019-03-25T14:21:36.516Z,1015.48
2019-03-25T14:22:36.525Z,1015.42
2019-03-25T14:23:36.477Z,1015.44
2019-03-25T14:24:36.465Z,1015.48
2019-03-25T14:25:36.453Z,1015.35
2019-03-25T14:26:36.445Z,1015.48
2019-03-25T14:27:36.461Z,1015.39
2019-03-25T14:28:36.460Z,1015.39
2019-03-25T14:29:36.410Z,1015.46
2019-03-25T14:30:36.411Z,1015.35
2019-03-25T14:31:36.403Z,1015.42
2019-03-25T14:32:36.460Z,1015.36
2019-03-25T14:33:36.371Z,1015.33
2019-03-25T14:34:44.390Z,1015.46
2019-03-25T14:35:37.396Z,1015.22
2019-03-25T14:36:36.333Z,1015.22
2019-03-25T14:37:36.358Z,1015.15
2019-03-25T14:38:36.541Z,1015.30
2019-03-25T14:39:36.314Z,1015.10
2019-03-25T14:40:36.327Z,1015.08
2019-03-25T14:41:36.292Z,1015.07
2019-03-25T14:42:36.302Z,1015.06
2019-03-25T14:43:36.310Z,1014.98
2019-03-25T14:44:36.278Z,1015.06
2019-03-25T14:45:36.267Z,1014.86
2019-03-25T14:46:36.250Z,1014.73
2019-03-25T14:47:36.242Z,1014.80
2019-03-25T14:48:36.255Z,1014.91
2019-03-25T14:49:36.198Z,1014.93
2019-03-25T14:50:36.216Z,1015.02
2019-03-25T14:51:36.200Z,1015.12
2019-03-25T14:52:36.220Z,1015.21
2019-03-25T14:53:44.826Z,1015.39
2019-03-25T14:54:37.282Z,1015.49
2019-03-25T14:55:36.412Z,1015.46
2019-03-25T14:56:36.142Z,1015.47
2019-03-25T14:57:36.110Z,1015.57
2019-03-25T14:58:36.102Z,1015.48
2019-03-25T14:59:36.099Z,1015.50
2019-03-25T15:00:36.111Z,1015.46
2019-03-25T15:01:36.095Z,1015.42
2019-03-25T15:02:36.072Z,1015.47
2019-03-25T15:03:36.044Z,1015.47
2019-03-25T15:04:36.073Z,1015.48
2019-03-25T15:05:36.049Z,1015.36
2019-03-25T15:06:36.021Z,1015.35
2019-03-25T15:07:36.013Z,1015.15
2019-03-25T15:08:36.046Z,1015.17
2019-03-25T15:09:36.012Z,1015.15
2019-03-25T15:10:35.991Z,1015.15
2019-03-25T15:11:35.978Z,1015.22
2019-03-25T15:12:35.979Z,1015.27
2019-03-25T15:13:35.989Z,1015.39
2019-03-25T15:14:35.938Z,1015.55
2019-03-25T15:15:35.936Z,1015.70
2019-03-25T15:16:35.910Z,1015.77
2019-03-25T15:17:35.910Z,1015.94
2019-03-25T15:18:35.949Z,1016.04
2019-03-25T15:19:35.893Z,1015.90
2019-03-25T15:20:35.894Z,1015.87
2019-03-25T15:21:35.855Z,1015.85
2019-03-25T15:22:35.869Z,1016.02
2019-03-25T15:23:35.836Z,1015.99
2019-03-25T15:24:35.833Z,1016.02
2019-03-25T15:25:35.813Z,1016.02
2019-03-25T15:26:35.827Z,1015.98
2019-03-25T15:27:35.811Z,1016.02
2019-03-25T15:28:35.822Z,1016.03
2019-03-25T15:29:35.795Z,1016.16
2019-03-25T15:30:36.476Z,1016.23
2019-03-25T15:31:35.749Z,1016.27
2019-03-25T15:32:35.747Z,1016.13
2019-03-25T15:33:35.818Z,1016.24
2019-03-25T15:34:35.767Z,1016.15
2019-03-25T15:35:35.715Z,1016.05
2019-03-25T15:36:35.702Z,1016.06
2019-03-25T15:37:35.775Z,1016.03
2019-03-25T15:38:35.675Z,1016.02
2019-03-25T15:39:46.098Z,1016.01
2019-03-25T15:40:36.787Z,1015.98
2019-03-25T15:41:35.674Z,1015.98
2019-03-25T15:42:35.670Z,1015.96
2019-03-25T15:43:35.631Z,1015.92
2019-03-25T15:44:35.614Z,1015.96
2019-03-25T15:45:35.602Z,1015.98
2019-03-25T15:46:35.619Z,1015.98
2019-03-25T15:47:35.692Z,1015.96
2019-03-25T15:48:35.574Z,1015.96
2019-03-25T15:49:35.559Z,1015.97
2019-03-25T15:50:35.544Z,1015.91
2019-03-25T15:51:35.572Z,1015.93
2019-03-25T15:52:35.614Z,1015.94
2019-03-25T15:53:35.537Z,1015.96
2019-03-25T15:54:35.528Z,1015.82
2019-03-25T15:55:35.647Z,1015.77
2019-03-25T15:56:35.494Z,1015.84
2019-03-25T15:57:35.470Z,1015.85
2019-03-25T15:58:35.467Z,1015.83
2019-03-25T15:59:35.476Z,1015.93
2019-03-25T16:00:46.653Z,1015.85
2019-03-25T16:01:36.460Z,1015.87
2019-03-25T16:02:35.429Z,1015.90
2019-03-25T16:03:35.425Z,1015.93
2019-03-25T16:04:35.527Z,1015.94
2019-03-25T16:05:35.422Z,1015.69
2019-03-25T16:06:36.382Z,1016.11
2019-03-25T16:07:35.365Z,1015.80
2019-03-25T16:08:35.412Z,1015.83
2019-03-25T16:09:35.382Z,1015.85
2019-03-25T16:10:36.407Z,1015.86
2019-03-25T16:11:35.362Z,1015.83
2019-03-25T16:12:35.330Z,1015.86
2019-03-25T16:13:35.307Z,1015.76
2019-03-25T16:14:35.302Z,1015.85
2019-03-25T16:15:35.276Z,1015.83
2019-03-25T16:16:35.339Z,1015.76
2019-03-25T16:17:35.294Z,1016.06
2019-03-25T16:18:35.243Z,1015.88
2019-03-25T16:19:35.366Z,1015.86
2019-03-25T16:20:35.264Z,1015.81
2019-03-25T16:21:35.257Z,1015.86
2019-03-25T16:22:35.211Z,1015.72
2019-03-25T16:23:35.218Z,1015.62
2019-03-25T16:24:35.251Z,1015.80
2019-03-25T16:25:35.211Z,1015.84
2019-03-25T16:26:35.173Z,1015.90
2019-03-25T16:27:35.205Z,1015.84
2019-03-25T16:28:35.198Z,1015.99
2019-03-25T16:29:35.137Z,1015.99
2019-03-25T16:30:35.153Z,1016.08
2019-03-25T16:31:35.167Z,1016.16
2019-03-25T16:32:35.437Z,1016.19
2019-03-25T16:33:35.120Z,1016.18
2019-03-25T16:34:35.089Z,1016.24
2019-03-25T16:35:35.103Z,1016.26
2019-03-25T16:36:35.057Z,1016.32
2019-03-25T16:37:35.044Z,1016.37
2019-03-25T16:38:35.058Z,1016.60
2019-03-25T16:39:35.021Z,1016.54
2019-03-25T16:40:35.056Z,1016.61
2019-03-25T16:41:35.034Z,1016.61
2019-03-25T16:42:35.071Z,1016.54
2019-03-25T16:43:35.512Z,1016.63
2019-03-25T16:44:35.050Z,1016.55
2019-03-25T16:45:35.040Z,1016.60
2019-03-25T16:46:34.945Z,1016.66
2019-03-25T16:47:34.951Z,1016.54
2019-03-25T16:48:34.935Z,1016.53
2019-03-25T16:49:35.955Z,1016.64
2019-03-25T16:50:34.937Z,1016.55
2019-03-25T16:51:34.915Z,1016.54
2019-03-25T16:52:35.017Z,1016.59
2019-03-25T16:53:35.977Z,1016.59
2019-03-25T16:54:40.626Z,1016.64
2019-03-25T16:55:34.857Z,1016.64
2019-03-25T16:56:34.863Z,1016.69
2019-03-25T16:57:34.828Z,1016.77
2019-03-25T16:58:35.255Z,1016.72
2019-03-25T16:59:34.806Z,1016.68
2019-03-25T17:00:34.916Z,1016.83
2019-03-25T17:01:34.827Z,1016.86
2019-03-25T17:02:34.780Z,1016.72
2019-03-25T17:03:34.823Z,1016.74
2019-03-25T17:04:34.753Z,1016.78
2019-03-25T17:05:34.764Z,1016.91
2019-03-25T17:06:34.742Z,1016.89
2019-03-25T17:07:34.746Z,1016.92
2019-03-25T17:08:34.728Z,1016.95
2019-03-25T17:09:34.707Z,1016.96
2019-03-25T17:10:34.942Z,1017.08
2019-03-25T17:11:34.776Z,1016.95
2019-03-25T17:12:34.986Z,1017.05
2019-03-25T17:13:34.682Z,1016.93
2019-03-25T17:14:34.684Z,1017.09
2019-03-25T17:15:35.472Z,1017.06
2019-03-25T17:16:34.642Z,1017.05
2019-03-25T17:17:34.692Z,1017.03
2019-03-25T17:18:34.745Z,1017.09
2019-03-25T17:19:34.610Z,1017.05
2019-03-25T17:20:34.724Z,1017.12
2019-03-25T17:21:34.576Z,1017.06
2019-03-25T17:22:34.586Z,1017.17
2019-03-25T17:23:34.545Z,1017.12
2019-03-25T17:24:34.567Z,1017.11
2019-03-25T17:25:34.588Z,1017.08
2019-03-25T17:26:42.248Z,1017.15
2019-03-25T17:27:35.577Z,1017.20
2019-03-25T17:28:34.531Z,1017.20
2019-03-25T17:29:34.490Z,1017.22
2019-03-25T17:30:34.471Z,1017.20
2019-03-25T17:31:34.510Z,1017.23
2019-03-25T17:32:34.457Z,1017.33
2019-03-25T17:33:34.463Z,1017.26
2019-03-25T17:34:34.465Z,1017.34
2019-03-25T17:35:35.005Z,1017.31
2019-03-25T17:36:34.445Z,1017.33
2019-03-25T17:37:34.414Z,1017.35
2019-03-25T17:38:34.432Z,1017.22
2019-03-25T17:39:34.378Z,1017.35
2019-03-25T17:40:34.461Z,1017.33
2019-03-25T17:41:35.366Z,1017.36
2019-03-25T17:42:35.887Z,1017.33
2019-03-25T17:43:34.335Z,1017.45
2019-03-25T17:44:34.459Z,1017.44
2019-03-25T17:45:34.322Z,1017.37
2019-03-25T17:46:34.330Z,1017.48
2019-03-25T17:47:34.297Z,1017.46
2019-03-25T17:48:34.285Z,1017.41
2019-03-25T17:49:34.341Z,1017.55
2019-03-25T17:50:34.388Z,1017.53
2019-03-25T17:51:34.410Z,1017.69
2019-03-25T17:52:34.243Z,1017.70
2019-03-25T17:53:34.226Z,1017.76
2019-03-25T17:54:34.493Z,1017.81
2019-03-25T17:55:34.232Z,1017.88
2019-03-25T17:56:34.228Z,1017.90
2019-03-25T17:57:34.180Z,1017.81
2019-03-25T17:58:34.164Z,1017.92
2019-03-25T17:59:34.173Z,1017.90
2019-03-25T18:00:34.189Z,1017.94
2019-03-25T18:01:34.162Z,1017.97
2019-03-25T18:02:34.136Z,1017.97
2019-03-25T18:03:34.134Z,1017.98
2019-03-25T18:04:34.105Z,1018.04
2019-03-25T18:05:34.199Z,1018.02
2019-03-25T18:06:34.161Z,1018.04
2019-03-25T18:07:34.106Z,1017.98
2019-03-25T18:08:34.160Z,1018.09
2019-03-25T18:09:34.905Z,1018.07
2019-03-25T18:10:34.052Z,1018.09
2019-03-25T18:11:34.411Z,1018.15
2019-03-25T18:15:28.809Z,1018.24
2019-03-25T18:16:28.772Z,1018.22
2019-03-25T18:17:28.774Z,1018.23
2019-03-25T18:18:28.777Z,1018.26
2019-03-25T18:19:28.747Z,1018.35
2019-03-25T18:20:29.807Z,1018.32
2019-03-25T18:21:28.750Z,1018.34
2019-03-25T18:22:38.962Z,1018.37
2019-03-25T18:23:30.610Z,1018.48
2019-03-25T18:24:29.897Z,1018.39
2019-03-25T18:25:28.722Z,1018.28
2019-03-25T18:26:28.937Z,1018.42
2019-03-25T18:27:28.787Z,1018.40
2019-03-25T18:28:28.675Z,1018.47
2019-03-25T18:29:31.058Z,1018.51
2019-03-25T18:30:28.626Z,1018.47
2019-03-25T18:31:28.694Z,1018.47
2019-03-25T18:32:28.696Z,1018.49
2019-03-25T18:33:28.760Z,1018.50
2019-03-25T18:34:28.770Z,1018.53
2019-03-25T18:35:28.625Z,1018.55
2019-03-25T18:36:28.553Z,1018.63
2019-03-25T18:37:28.536Z,1018.56
2019-03-25T18:38:28.556Z,1018.63
2019-03-25T18:39:28.684Z,1018.68
2019-03-25T18:40:29.118Z,1018.67
2019-03-25T18:41:28.522Z,1018.65
2019-03-25T18:42:28.545Z,1018.74
2019-03-25T18:43:28.498Z,1018.68
2019-03-25T18:44:28.501Z,1018.70
2019-03-25T18:45:28.687Z,1018.72
2019-03-25T18:46:28.464Z,1018.69
2019-03-25T18:47:28.507Z,1018.75
2019-03-25T18:48:28.576Z,1018.74
2019-03-25T18:49:28.505Z,1018.79
2019-03-25T18:50:28.471Z,1018.76
2019-03-25T18:51:28.385Z,1018.75
2019-03-25T18:52:28.422Z,1018.77
2019-03-25T18:53:28.359Z,1018.74
2019-03-25T18:54:28.352Z,1018.82
2019-03-25T18:55:28.371Z,1018.78
2019-03-25T18:56:28.347Z,1018.85
2019-03-25T18:57:28.387Z,1018.83
2019-03-25T18:58:28.336Z,1018.89
2019-03-25T18:59:28.351Z,1018.92
2019-03-25T19:00:28.287Z,1018.90
2019-03-25T19:01:28.276Z,1018.94
2019-03-25T19:02:28.280Z,1018.87
2019-03-25T19:03:28.296Z,1018.89
2019-03-25T19:04:28.263Z,1018.96
2019-03-25T19:05:28.236Z,1018.95
2019-03-25T19:06:28.229Z,1019.04
2019-03-25T19:07:28.268Z,1019.04
2019-03-25T19:08:28.249Z,1018.99